Time;durP1;ratioP1;P1;durP2;ratioP2;P2;SDS_P1;SDS_P2;PMS_P1;PMS_P2;Temp;Humidity;BMP_temperature;BMP_pressure;BME280_temperature;BME280_humidity;BME280_pressure;Samples;Min_cycle;Max_cycle;Signal;HPM_P1;HPM_P2
2022/05/23 00:02:20;;;;;;;0.30;0.30;;;14.20;99.90;;;;;;5094283;28;20048;-72
2022/05/23 00:04:47;;;;;;;0.30;0.30;;;14.20;99.90;;;;;;5094572;28;20076;-73
2022/05/23 00:07:22;;;;;;;1.85;1.33;;;14.20;99.90;;;;;;5094328;28;20043;-72
2022/05/23 00:09:49;;;;;;;0.40;0.40;;;14.20;99.90;;;;;;5094198;28;20074;-73
2022/05/23 00:12:15;;;;;;;0.35;0.35;;;14.10;99.90;;;;;;5094201;28;20044;-72
2022/05/23 00:14:42;;;;;;;0.30;0.30;;;14.10;99.90;;;;;;5094202;28;20046;-73
2022/05/23 00:17:10;;;;;;;0.60;0.60;;;14.10;99.90;;;;;;5094178;28;20097;-72
2022/05/23 00:19:35;;;;;;;0.38;0.38;;;14.10;99.90;;;;;;5093963;28;20040;-73
2022/05/23 00:22:01;;;;;;;0.30;0.30;;;14.00;99.90;;;;;;5094086;28;20039;-73
2022/05/23 00:24:26;;;;;;;0.50;0.50;;;14.00;99.90;;;;;;5093990;28;20126;-72
2022/05/23 00:26:52;;;;;;;0.30;0.30;;;14.00;99.90;;;;;;5093979;28;20044;-72
2022/05/23 00:29:19;;;;;;;0.40;0.40;;;14.00;99.90;;;;;;5094597;28;20105;-72
2022/05/23 00:37:13;;;;;;;0.30;0.30;;;13.90;99.90;;;;;;5093958;28;20048;-72
2022/05/23 00:39:39;;;;;;;0.30;0.30;;;13.90;99.90;;;;;;5093889;28;20048;-72
2022/05/23 00:44:55;;;;;;;0.38;0.38;;;13.80;99.90;;;;;;5093976;28;20052;-72
2022/05/23 00:47:24;;;;;;;0.30;0.30;;;13.70;99.90;;;;;;5093722;28;20442;-72
2022/05/23 00:49:50;;;;;;;0.30;0.30;;;13.70;99.90;;;;;;5093749;28;20044;-72
2022/05/23 00:52:26;;;;;;;0.30;0.30;;;13.70;99.90;;;;;;5093722;28;20040;-72
2022/05/23 00:54:56;;;;;;;0.32;0.32;;;13.70;99.90;;;;;;5093818;28;20040;-72
2022/05/23 00:57:26;;;;;;;0.57;0.40;;;13.60;99.90;;;;;;5093792;28;20048;-72
2022/05/23 00:59:52;;;;;;;0.35;0.35;;;13.60;99.90;;;;;;5093679;28;20040;-72
2022/05/23 01:02:20;;;;;;;0.40;0.40;;;13.50;99.90;;;;;;5093569;28;20042;-72
2022/05/23 01:04:46;;;;;;;0.30;0.30;;;13.50;99.90;;;;;;5093594;28;20047;-72
2022/05/23 01:07:12;;;;;;;;;;;13.50;99.90;;;;;;5093900;28;20054;-72
2022/05/23 01:09:38;;;;;;;0.30;0.30;;;13.50;99.90;;;;;;5093714;28;20338;-72
2022/05/23 01:12:04;;;;;;;0.30;0.30;;;13.40;99.90;;;;;;5093571;28;20523;-72
2022/05/23 01:14:49;;;;;;;0.35;0.35;;;13.40;99.90;;;;;;5093445;28;20040;-72
2022/05/23 01:17:15;;;;;;;0.40;0.40;;;13.40;99.90;;;;;;5093478;28;20055;-73
2022/05/23 01:19:40;;;;;;;0.50;0.50;;;13.40;99.90;;;;;;5093464;28;20054;-72
2022/05/23 01:22:23;;;;;;;0.30;0.30;;;13.30;99.90;;;;;;5093727;28;20041;-72
2022/05/23 01:25:05;;;;;;;0.30;0.30;;;13.30;99.90;;;;;;5093090;28;20495;-72
2022/05/23 01:27:32;;;;;;;0.43;0.43;;;13.20;99.90;;;;;;5093481;28;20036;-72
2022/05/23 01:29:57;;;;;;;0.40;0.40;;;13.20;99.90;;;;;;5093368;28;20131;-72
2022/05/23 01:32:23;;;;;;;0.40;0.40;;;13.20;99.90;;;;;;5093608;28;20083;-72
2022/05/23 01:34:49;;;;;;;0.40;0.40;;;13.20;99.90;;;;;;5093323;28;20427;-72
2022/05/23 01:37:15;;;;;;;0.40;0.40;;;13.20;99.90;;;;;;5093308;28;20149;-73
2022/05/23 01:39:41;;;;;;;0.30;0.30;;;13.20;99.90;;;;;;5093246;28;20052;-72
2022/05/23 01:42:07;;;;;;;0.40;0.40;;;13.20;99.90;;;;;;5093162;28;20044;-73
2022/05/23 01:44:34;;;;;;;0.40;0.40;;;13.30;99.90;;;;;;5095202;28;20044;-72
2022/05/23 01:47:06;;;;;;;0.40;0.40;;;13.20;99.90;;;;;;5095732;28;20488;-73
2022/05/23 01:49:31;;;;;;;0.35;0.35;;;13.30;99.90;;;;;;5096889;28;20496;-73
2022/05/23 01:51:57;;;;;;;0.40;0.40;;;13.30;99.90;;;;;;5096885;28;20083;-73
2022/05/23 01:54:23;;;;;;;0.40;0.40;;;13.30;99.90;;;;;;5096813;28;20044;-73
2022/05/23 01:56:48;;;;;;;0.40;0.40;;;13.30;99.90;;;;;;5096804;28;20044;-73
2022/05/23 02:01:58;;;;;;;0.40;0.40;;;13.30;99.90;;;;;;5096714;28;20060;-73
2022/05/23 02:04:23;;;;;;;0.40;0.40;;;13.30;99.90;;;;;;5096621;28;20119;-73
2022/05/23 02:06:49;;;;;;;0.30;0.30;;;13.40;99.90;;;;;;5096580;28;20044;-73
2022/05/23 02:09:14;;;;;;;0.30;0.30;;;13.40;99.90;;;;;;5096295;28;20048;-73
2022/05/23 02:11:40;;;;;;;1.75;1.65;;;13.40;99.90;;;;;;5096510;28;20048;-73
2022/05/23 02:14:06;;;;;;;0.40;0.40;;;13.40;99.90;;;;;;5096453;28;20129;-73
2022/05/23 02:16:32;;;;;;;0.30;0.30;;;13.40;99.90;;;;;;5096575;28;20080;-73
2022/05/23 02:18:59;;;;;;;0.40;0.40;;;13.40;99.90;;;;;;5096342;28;20217;-72
2022/05/23 02:21:25;;;;;;;0.40;0.40;;;13.40;99.90;;;;;;5096124;28;20573;-72
2022/05/23 02:23:50;;;;;;;0.50;0.50;;;13.40;99.90;;;;;;5096302;28;20052;-73
2022/05/23 02:26:16;;;;;;;0.40;0.40;;;13.40;99.90;;;;;;5096261;28;20051;-72
2022/05/23 02:28:41;;;;;;;0.40;0.40;;;13.40;99.90;;;;;;5096200;28;20048;-73
2022/05/23 02:31:07;;;;;;;0.40;0.40;;;13.40;99.90;;;;;;5096400;28;20499;-72
2022/05/23 02:33:32;;;;;;;0.32;0.32;;;13.40;99.90;;;;;;5096065;28;20533;-72
2022/05/23 02:35:58;;;;;;;0.40;0.40;;;13.40;99.90;;;;;;5096006;28;20372;-72
2022/05/23 02:38:24;;;;;;;0.40;0.40;;;13.40;99.90;;;;;;5096520;28;20043;-72
2022/05/23 02:40:49;;;;;;;0.30;0.30;;;13.40;99.90;;;;;;5095992;28;20084;-73
2022/05/23 02:43:15;;;;;;;0.30;0.30;;;13.40;99.90;;;;;;5095829;28;20040;-72
2022/05/23 02:45:41;;;;;;;0.40;0.40;;;13.40;99.90;;;;;;5095810;28;20060;-72
2022/05/23 02:48:08;;;;;;;0.73;0.65;;;13.40;99.90;;;;;;5095936;28;20044;-72
2022/05/23 02:50:33;;;;;;;0.30;0.30;;;13.40;99.90;;;;;;5095446;28;20488;-72
2022/05/23 02:52:59;;;;;;;0.37;0.37;;;13.40;99.90;;;;;;5095658;28;20047;-72
2022/05/23 02:55:24;;;;;;;0.40;0.40;;;13.40;99.90;;;;;;5094701;28;20086;-72
2022/05/23 02:57:50;;;;;;;0.30;0.30;;;13.40;99.90;;;;;;5095487;28;20050;-72
2022/05/23 03:00:16;;;;;;;0.40;0.40;;;13.50;99.90;;;;;;5095545;28;20055;-72
2022/05/23 03:05:26;;;;;;;0.50;0.50;;;13.50;99.90;;;;;;5095330;28;20048;-72
2022/05/23 03:07:51;;;;;;;0.30;0.30;;;13.50;99.90;;;;;;5094641;28;20048;-73
2022/05/23 03:10:17;;;;;;;0.30;0.30;;;13.50;99.90;;;;;;5095732;28;20146;-72
2022/05/23 03:12:43;;;;;;;0.30;0.30;;;13.50;99.90;;;;;;5095307;28;20043;-73
2022/05/23 03:15:10;;;;;;;0.40;0.40;;;13.50;99.90;;;;;;5095286;28;20122;-73
2022/05/23 03:17:35;;;;;;;0.30;0.30;;;13.60;99.90;;;;;;5095288;28;20087;-72
2022/05/23 03:20:01;;;;;;;0.33;0.33;;;13.60;99.90;;;;;;5095078;28;20083;-72
2022/05/23 03:27:56;;;;;;;0.47;0.47;;;13.60;99.90;;;;;;5095028;28;20048;-72
2022/05/23 03:30:22;;;;;;;0.30;0.30;;;13.60;99.90;;;;;;5093997;28;20051;-72
2022/05/23 03:32:47;;;;;;;0.50;0.50;;;13.60;99.90;;;;;;5094920;28;20039;-72
2022/05/23 03:35:13;;;;;;;0.30;0.30;;;13.60;99.90;;;;;;5094916;28;20046;-73
2022/05/23 03:37:38;;;;;;;0.45;0.45;;;13.60;99.90;;;;;;5094862;28;20487;-73
2022/05/23 03:40:07;;;;;;;0.43;0.43;;;13.60;99.90;;;;;;5094773;28;20056;-72
2022/05/23 03:42:33;;;;;;;0.32;0.32;;;13.70;99.90;;;;;;5094628;28;20040;-73
2022/05/23 03:44:59;;;;;;;0.30;0.30;;;13.70;99.90;;;;;;5095453;28;20044;-72
2022/05/23 03:47:24;;;;;;;0.30;0.30;;;13.70;99.90;;;;;;5094678;28;20143;-72
2022/05/23 03:49:50;;;;;;;0.40;0.40;;;13.70;99.90;;;;;;5095015;28;20071;-72
2022/05/23 03:52:15;;;;;;;0.30;0.30;;;13.70;99.90;;;;;;5094996;28;20097;-72
2022/05/23 03:54:41;;;;;;;0.40;0.40;;;13.70;99.90;;;;;;5094816;28;20094;-72
2022/05/23 03:57:07;;;;;;;0.60;0.60;;;13.70;99.90;;;;;;5094502;28;20058;-72
2022/05/23 03:59:33;;;;;;;0.40;0.40;;;13.80;99.90;;;;;;5094123;28;20059;-72
2022/05/23 04:01:59;;;;;;;0.30;0.30;;;13.80;99.90;;;;;;5094346;28;20051;-72
2022/05/23 04:04:29;;;;;;;0.30;0.30;;;13.80;99.90;;;;;;5094311;28;20044;-72
2022/05/23 04:06:59;;;;;;;0.38;0.38;;;13.80;99.90;;;;;;5093411;28;20274;-72
2022/05/23 04:09:25;;;;;;;0.35;0.35;;;13.90;99.90;;;;;;5093523;28;20048;-71
2022/05/23 04:11:51;;;;;;;0.37;0.37;;;13.90;99.90;;;;;;5094298;28;20052;-72
2022/05/23 04:14:16;;;;;;;0.40;0.40;;;13.80;99.90;;;;;;5094164;28;20366;-72
2022/05/23 04:16:46;;;;;;;0.30;0.30;;;13.90;99.90;;;;;;5093360;28;20040;-73
2022/05/23 04:19:12;;;;;;;0.40;0.40;;;13.90;99.90;;;;;;5094233;28;20050;-72
2022/05/23 04:21:42;;;;;;;0.40;0.40;;;13.90;99.90;;;;;;5094607;28;20476;-73
2022/05/23 04:24:09;;;;;;;0.40;0.40;;;13.90;99.90;;;;;;5094419;28;20055;-73
2022/05/23 04:26:35;;;;;;;0.30;0.30;;;13.90;99.90;;;;;;5094085;28;20039;-73
2022/05/23 04:29:01;;;;;;;0.40;0.40;;;13.90;99.90;;;;;;5094056;28;20464;-72
2022/05/23 04:31:27;;;;;;;0.43;0.43;;;13.90;99.90;;;;;;5094437;28;20085;-72
2022/05/23 04:36:37;;;;;;;0.40;0.40;;;13.80;99.90;;;;;;5093248;28;20387;-73
2022/05/23 04:39:03;;;;;;;0.40;0.40;;;13.80;99.90;;;;;;5094106;28;20036;-72
2022/05/23 04:41:28;;;;;;;0.30;0.30;;;13.80;99.90;;;;;;5093832;28;20522;-73
2022/05/23 04:43:54;;;;;;;0.30;0.30;;;13.80;99.90;;;;;;5094187;28;20051;-73
2022/05/23 04:46:20;;;;;;;0.40;0.40;;;13.80;99.90;;;;;;5093806;28;20040;-73
2022/05/23 04:51:29;;;;;;;0.68;0.68;;;13.90;99.90;;;;;;5093753;28;20617;-73
2022/05/23 04:53:56;;;;;;;0.33;0.33;;;13.90;99.90;;;;;;5093659;28;20060;-73
2022/05/23 04:56:22;;;;;;;0.47;0.47;;;14.00;99.90;;;;;;5094199;28;20059;-73
2022/05/23 04:58:48;;;;;;;0.50;0.50;;;14.10;99.90;;;;;;5093284;28;20044;-72
2022/05/23 05:01:13;;;;;;;0.40;0.40;;;14.20;99.90;;;;;;5093609;28;20093;-73
2022/05/23 05:03:39;;;;;;;0.40;0.40;;;14.30;99.90;;;;;;5093560;28;20048;-74
2022/05/23 05:06:05;;;;;;;0.40;0.40;;;14.40;99.90;;;;;;5093595;28;20127;-73
2022/05/23 05:08:30;;;;;;;3.80;0.63;;;14.40;99.90;;;;;;5093636;28;20044;-73
2022/05/23 05:10:59;;;;;;;2.03;0.87;;;14.40;99.90;;;;;;5094368;28;20384;-73
2022/05/23 05:13:25;;;;;;;1.65;1.27;;;14.40;99.90;;;;;;5093597;28;20389;-73
2022/05/23 05:15:51;;;;;;;0.40;0.40;;;14.40;99.90;;;;;;5093694;28;20051;-73
2022/05/23 05:18:17;;;;;;;0.40;0.40;;;14.60;99.90;;;;;;5093201;28;20044;-73
2022/05/23 05:20:43;;;;;;;0.37;0.37;;;14.50;99.90;;;;;;5097137;28;20052;-73
2022/05/23 05:23:08;;;;;;;0.40;0.40;;;14.50;99.90;;;;;;5097353;28;20042;-73
2022/05/23 05:25:34;;;;;;;0.40;0.40;;;14.50;99.90;;;;;;5097402;28;20046;-73
2022/05/23 05:28:00;;;;;;;0.50;0.50;;;14.60;99.90;;;;;;5097386;28;20054;-73
2022/05/23 05:30:26;;;;;;;0.40;0.40;;;14.60;99.90;;;;;;5097330;28;20063;-72
2022/05/23 05:32:58;;;;;;;0.40;0.40;;;14.70;99.90;;;;;;5097243;28;20040;-71
2022/05/23 05:35:37;;;;;;;0.75;0.75;;;14.80;99.90;;;;;;5096931;28;20044;-72
2022/05/23 05:38:15;;;;;;;0.30;0.30;;;14.90;99.90;;;;;;5097111;28;20048;-71
2022/05/23 05:40:43;;;;;;;0.30;0.30;;;15.10;99.90;;;;;;5097523;28;20044;-72
2022/05/23 05:43:23;;;;;;;0.30;0.30;;;15.30;99.90;;;;;;5096946;28;20062;-73
2022/05/23 05:45:58;;;;;;;0.30;0.30;;;15.60;99.90;;;;;;5097486;28;20100;-73
2022/05/23 05:48:24;;;;;;;0.38;0.38;;;15.80;99.90;;;;;;5097142;28;20110;-72
2022/05/23 05:50:50;;;;;;;0.57;0.40;;;16.00;99.90;;;;;;5097033;28;20506;-72
2022/05/23 05:53:24;;;;;;;0.50;0.50;;;16.20;99.90;;;;;;5097021;28;20044;-72
2022/05/23 05:55:50;;;;;;;0.30;0.30;;;16.50;99.90;;;;;;5097266;28;20039;-71
2022/05/23 05:58:17;;;;;;;0.40;0.40;;;16.60;99.90;;;;;;5096880;28;20480;-71
2022/05/23 06:00:42;;;;;;;0.40;0.40;;;16.70;99.90;;;;;;5096827;28;20281;-72
2022/05/23 06:03:08;;;;;;;0.30;0.30;;;16.80;99.90;;;;;;5096244;28;20044;-72
2022/05/23 06:11:23;;;;;;;0.30;0.30;;;16.90;99.90;;;;;;5097060;28;20052;-72
2022/05/23 06:13:49;;;;;;;0.60;0.45;;;17.20;99.90;;;;;;5096611;28;20479;-73
2022/05/23 06:16:15;;;;;;;1.00;0.82;;;17.10;99.90;;;;;;5096309;28;20066;-72
2022/05/23 06:18:40;;;;;;;0.30;0.30;;;17.40;99.90;;;;;;5096323;28;20476;-72
2022/05/23 06:21:09;;;;;;;0.40;0.40;;;17.50;99.90;;;;;;5096299;28;20044;-72
2022/05/23 06:23:36;;;;;;;0.40;0.40;;;17.60;99.90;;;;;;5096143;28;20036;-72
2022/05/23 06:26:01;;;;;;;0.68;0.40;;;17.60;99.90;;;;;;5096254;28;20391;-73
2022/05/23 06:28:27;;;;;;;0.97;0.77;;;17.70;99.90;;;;;;5096191;28;20130;-72
2022/05/23 06:30:52;;;;;;;0.40;0.40;;;17.80;99.90;;;;;;5094868;28;20044;-72
2022/05/23 06:33:18;;;;;;;0.30;0.30;;;18.10;99.90;;;;;;5096121;28;20036;-72
2022/05/23 06:35:43;;;;;;;0.40;0.40;;;18.10;99.90;;;;;;5096004;28;20051;-72
2022/05/23 06:38:09;;;;;;;0.30;0.30;;;18.10;99.90;;;;;;5096334;28;20055;-72
2022/05/23 06:40:34;;;;;;;0.93;0.93;;;18.20;99.90;;;;;;5095840;28;20503;-72
2022/05/23 06:43:01;;;;;;;0.30;0.30;;;18.30;99.90;;;;;;5096266;28;20387;-72
2022/05/23 06:45:27;;;;;;;0.30;0.30;;;18.50;99.90;;;;;;5095920;28;20044;-72
2022/05/23 06:47:53;;;;;;;0.30;0.30;;;18.50;99.90;;;;;;5096144;28;20052;-73
2022/05/23 06:50:18;;;;;;;0.30;0.30;;;18.60;99.90;;;;;;5095780;28;20052;-72
2022/05/23 06:52:44;;;;;;;0.30;0.30;;;18.70;99.90;;;;;;5095655;28;20131;-72
2022/05/23 06:55:10;;;;;;;0.30;0.30;;;18.50;99.90;;;;;;5095632;28;20091;-72
2022/05/23 06:57:35;;;;;;;0.43;0.43;;;18.60;99.90;;;;;;5096161;28;20079;-72
2022/05/23 07:00:01;;;;;;;0.77;0.77;;;18.70;99.90;;;;;;5095977;28;20146;-72
2022/05/23 07:02:27;;;;;;;0.43;0.43;;;18.90;99.90;;;;;;5095423;28;20384;-72
2022/05/23 07:13:05;;;;;;;0.30;0.30;;;19.60;99.90;;;;;;5095486;28;20087;-73
2022/05/23 07:15:36;;;;;;;0.40;0.40;;;19.60;99.90;;;;;;5096167;28;20058;-72
2022/05/23 07:18:03;;;;;;;0.30;0.30;;;19.70;99.90;;;;;;5097142;28;20084;-71
2022/05/23 07:20:29;;;;;;;0.85;0.75;;;19.70;99.90;;;;;;5098093;28;20073;-72
2022/05/23 07:22:55;;;;;;;0.30;0.30;;;19.80;99.90;;;;;;5097864;28;20044;-72
2022/05/23 07:25:20;;;;;;;0.60;0.60;;;19.80;99.90;;;;;;5095448;28;20548;-73
2022/05/23 07:27:46;;;;;;;0.93;0.83;;;20.00;99.90;;;;;;5095425;28;20054;-73
2022/05/23 07:30:12;;;;;;;0.50;0.50;;;20.10;99.90;;;;;;5095158;28;20097;-73
2022/05/23 07:32:37;;;;;;;1.87;1.27;;;20.20;99.90;;;;;;5095738;28;20380;-72
2022/05/23 07:35:03;;;;;;;0.60;0.60;;;20.20;99.90;;;;;;5095480;28;20055;-73
2022/05/23 07:37:29;;;;;;;0.30;0.30;;;20.30;99.90;;;;;;5094836;28;20044;-73
2022/05/23 07:39:56;;;;;;;0.37;0.37;;;20.40;99.90;;;;;;5094865;28;20044;-73
2022/05/23 07:42:23;;;;;;;0.38;0.38;;;20.40;99.90;;;;;;5094308;28;20040;-73
2022/05/23 07:44:48;;;;;;;2.63;1.58;;;20.60;99.90;;;;;;5094948;28;20047;-73
2022/05/23 07:47:14;;;;;;;0.33;0.33;;;20.60;99.90;;;;;;5094834;28;20442;-73
2022/05/23 07:49:39;;;;;;;0.30;0.30;;;20.70;99.90;;;;;;5094583;28;20498;-73
2022/05/23 07:52:05;;;;;;;0.47;0.47;;;20.70;99.90;;;;;;5093431;28;20530;-73
2022/05/23 08:02:44;;;;;;;0.40;0.40;;;21.20;99.90;;;;;;5093916;28;20051;-72
2022/05/23 08:05:11;;;;;;;0.60;0.60;;;21.30;99.90;;;;;;5094671;28;20440;-72
2022/05/23 08:07:37;;;;;;;0.30;0.30;;;21.40;99.90;;;;;;5094306;28;20051;-72
2022/05/23 08:10:04;;;;;;;2.40;2.20;;;21.50;99.90;;;;;;5093978;28;20135;-72
2022/05/23 08:12:31;;;;;;;0.70;0.70;;;21.50;99.90;;;;;;5094237;28;20278;-72
2022/05/23 08:14:57;;;;;;;0.30;0.30;;;21.50;99.90;;;;;;5094749;28;20063;-72
2022/05/23 08:17:23;;;;;;;0.35;0.35;;;21.60;99.90;;;;;;5094208;28;20036;-72
2022/05/23 08:19:49;;;;;;;0.30;0.30;;;21.80;99.90;;;;;;5094107;28;20048;-72
2022/05/23 08:22:16;;;;;;;0.67;0.67;;;21.80;99.90;;;;;;5094038;28;20051;-72
2022/05/23 08:24:41;;;;;;;0.30;0.30;;;21.90;99.90;;;;;;5094091;28;20081;-73
2022/05/23 08:27:07;;;;;;;0.20;0.20;;;21.90;99.90;;;;;;5094062;28;20040;-73
2022/05/23 08:29:35;;;;;;;0.40;0.40;;;22.10;99.90;;;;;;5093755;28;20083;-73
2022/05/23 08:32:03;;;;;;;0.30;0.30;;;22.40;99.90;;;;;;5093746;28;20488;-72
2022/05/23 08:34:29;;;;;;;0.32;0.32;;;22.40;99.90;;;;;;5093856;28;20101;-72
2022/05/23 08:36:55;;;;;;;0.20;0.20;;;22.50;99.90;;;;;;5093858;28;20127;-73
2022/05/23 08:39:21;;;;;;;0.40;0.30;;;22.40;99.90;;;;;;5092603;28;20044;-73
2022/05/23 08:41:50;;;;;;;0.50;0.50;;;22.50;99.90;;;;;;5093539;28;20700;-73
2022/05/23 08:44:39;;;;;;;0.40;0.40;;;22.70;99.90;;;;;;5093790;28;20045;-72
2022/05/23 08:47:38;;;;;;;0.40;0.40;;;22.80;99.90;;;;;;5093731;28;20110;-72
2022/05/23 08:50:09;;;;;;;;;;;23.00;99.90;;;;;;5094266;28;20055;-73
2022/05/23 08:52:53;;;;;;;0.20;0.20;;;23.00;99.90;;;;;;5093613;28;19927;-73
2022/05/23 08:55:34;;;;;;;0.65;0.65;;;22.90;99.90;;;;;;5096837;28;20121;-73
2022/05/23 08:58:17;;;;;;;0.30;0.30;;;23.10;99.90;;;;;;5097672;28;20484;-74
2022/05/23 09:00:47;;;;;;;0.73;0.73;;;23.20;99.90;;;;;;5097818;28;20040;-73
2022/05/23 09:03:25;;;;;;;0.40;0.40;;;23.40;99.90;;;;;;5098209;28;20043;-73
2022/05/23 09:06:19;;;;;;;0.57;0.57;;;23.40;99.90;;;;;;5097778;28;20048;-75
2022/05/23 09:08:53;;;;;;;0.30;0.30;;;23.40;99.90;;;;;;5097579;28;20105;-73
2022/05/23 09:11:32;;;;;;;0.80;0.55;;;23.50;98.70;;;;;;5097709;28;20048;-73
2022/05/23 09:13:59;;;;;;;0.52;0.50;;;23.70;98.80;;;;;;5098032;28;20051;-72
2022/05/23 09:16:29;;;;;;;0.30;0.30;;;23.70;99.30;;;;;;5097542;28;20089;-71
2022/05/23 09:19:07;;;;;;;0.20;0.20;;;23.80;98.30;;;;;;5097581;28;20044;-73
2022/05/23 09:24:18;;;;;;;0.38;0.38;;;24.00;97.40;;;;;;5097559;28;20484;-73
2022/05/23 09:26:45;;;;;;;1.55;0.52;;;24.00;96.80;;;;;;5097713;28;20043;-73
2022/05/23 09:29:10;;;;;;;0.35;0.35;;;24.00;96.40;;;;;;5097577;28;20044;-73
2022/05/23 09:31:51;;;;;;;0.40;0.33;;;24.00;96.60;;;;;;5097284;28;20391;-73
2022/05/23 09:34:34;;;;;;;0.40;0.40;;;24.10;96.80;;;;;;5096241;28;20468;-74
2022/05/23 09:37:02;;;;;;;0.20;0.20;;;24.30;95.90;;;;;;5097681;28;20048;-74
2022/05/23 09:39:30;;;;;;;0.40;0.40;;;24.30;96.80;;;;;;5097119;28;20403;-73
2022/05/23 09:47:49;;;;;;;0.35;0.35;;;24.00;94.80;;;;;;5097293;28;20087;-73
2022/05/23 09:50:26;;;;;;;0.43;0.43;;;24.10;95.90;;;;;;5096991;28;20510;-73
2022/05/23 09:52:56;;;;;;;0.40;0.40;;;24.00;95.30;;;;;;5096793;28;20127;-73
2022/05/23 09:55:34;;;;;;;0.30;0.30;;;24.10;95.90;;;;;;5096972;28;20518;-72
2022/05/23 09:58:02;;;;;;;0.35;0.35;;;24.20;95.50;;;;;;5096650;28;20487;-73
2022/05/23 10:00:37;;;;;;;0.50;0.40;;;24.40;96.90;;;;;;5096671;28;20044;-73
2022/05/23 10:03:13;;;;;;;0.50;0.50;;;24.50;94.80;;;;;;5096691;28;20105;-73
2022/05/23 10:05:41;;;;;;;0.30;0.30;;;24.60;95.80;;;;;;5096379;28;20460;-73
2022/05/23 10:08:13;;;;;;;0.20;0.20;;;24.60;95.00;;;;;;5096925;28;20040;-74
2022/05/23 10:10:52;;;;;;;0.47;0.47;;;24.80;95.20;;;;;;5096632;28;20056;-72
2022/05/23 10:13:35;;;;;;;0.60;0.60;;;24.90;95.00;;;;;;5096409;28;20045;-73
2022/05/23 10:16:17;;;;;;;0.20;0.20;;;25.00;93.90;;;;;;5096386;28;20048;-73
2022/05/23 10:18:52;;;;;;;0.30;0.30;;;25.10;93.00;;;;;;5095703;28;20178;-73
2022/05/23 10:21:28;;;;;;;0.45;0.45;;;25.00;93.20;;;;;;5096649;28;20482;-72
2022/05/23 10:24:27;;;;;;;0.57;0.57;;;25.20;93.30;;;;;;5095331;28;20051;-74
2022/05/23 10:27:03;;;;;;;0.35;0.35;;;25.40;94.10;;;;;;5052342;28;20056;-73
2022/05/23 10:29:55;;;;;;;0.30;0.30;;;25.70;92.80;;;;;;5096551;28;20446;-73
2022/05/23 10:32:41;;;;;;;0.30;0.30;;;25.60;92.10;;;;;;5096201;28;20040;-74
2022/05/23 10:35:44;;;;;;;0.30;0.30;;;25.60;92.80;;;;;;5096058;28;20044;-73
2022/05/23 10:44:10;;;;;;;0.50;0.50;;;26.10;91.50;;;;;;5095828;28;20044;-74
2022/05/23 10:46:36;;;;;;;0.40;0.40;;;26.00;92.00;;;;;;5096113;28;20095;-73
2022/05/23 10:49:17;;;;;;;0.20;0.20;;;26.10;90.80;;;;;;5095791;28;20055;-74
2022/05/23 10:52:02;;;;;;;0.50;0.50;;;26.10;91.10;;;;;;5095841;28;20048;-73
2022/05/23 10:55:06;;;;;;;0.50;0.50;;;26.20;92.10;;;;;;5095807;28;20116;-74
2022/05/23 10:57:53;;;;;;;0.50;0.40;;;26.10;91.00;;;;;;5013245;28;20414;-74
2022/05/23 11:00:23;;;;;;;2.25;0.45;;;26.00;91.70;;;;;;5090275;28;20060;-74
2022/05/23 11:03:15;;;;;;;0.40;0.40;;;26.00;91.00;;;;;;5095578;28;20040;-74
2022/05/23 11:06:04;;;;;;;0.30;0.30;;;26.00;90.80;;;;;;5094864;28;20094;-74
2022/05/23 11:08:51;;;;;;;1.48;1.00;;;26.10;91.30;;;;;;5095518;28;20123;-74
2022/05/23 11:11:35;;;;;;;;;;;26.30;92.20;;;;;;5096185;28;20145;-74
2022/05/23 11:14:39;;;;;;;0.30;0.30;;;26.00;90.80;;;;;;5095501;28;20021;-73
2022/05/23 11:17:29;;;;;;;0.52;0.52;;;26.10;91.50;;;;;;5094949;28;20050;-74
2022/05/23 11:20:03;;;;;;;0.40;0.40;;;26.00;91.30;;;;;;5095284;28;20438;-73
2022/05/23 11:22:34;;;;;;;0.30;0.30;;;26.20;92.30;;;;;;5095324;28;20044;-73
2022/05/23 11:25:13;;;;;;;0.43;0.43;;;26.30;92.40;;;;;;5095085;28;20044;-73
2022/05/23 11:33:58;;;;;;;0.40;0.40;;;25.90;91.30;;;;;;5094847;28;20048;-74
2022/05/23 11:36:44;;;;;;;0.45;0.45;;;25.80;91.80;;;;;;5095357;28;20134;-74
2022/05/23 11:39:41;;;;;;;0.52;0.52;;;25.70;92.80;;;;;;5095099;28;20040;-73
2022/05/23 11:42:40;;;;;;;0.70;0.70;;;25.90;92.20;;;;;;5094873;28;20051;-74
2022/05/23 11:47:51;;;;;;;0.57;0.45;;;26.10;92.10;;;;;;5094839;28;19924;-74
2022/05/23 11:50:23;;;;;;;0.40;0.40;;;26.40;90.90;;;;;;5094619;28;20044;-74
2022/05/23 11:53:11;;;;;;;0.40;0.40;;;26.60;90.40;;;;;;5095006;28;20040;-74
2022/05/23 11:56:03;;;;;;;;;;;26.70;90.70;;;;;;5095007;28;20506;-74
2022/05/23 11:58:49;;;;;;;7.43;0.73;;;26.50;91.30;;;;;;5090423;28;19935;-73
2022/05/23 12:01:16;;;;;;;1.38;0.60;;;26.50;90.60;;;;;;5094361;28;20522;-74
2022/05/23 12:03:47;;;;;;;0.40;0.40;;;26.30;90.40;;;;;;5094390;28;20383;-73
2022/05/23 12:06:23;;;;;;;0.50;0.50;;;26.40;92.20;;;;;;5094380;28;20131;-74
2022/05/23 12:09:03;;;;;;;0.30;0.30;;;26.10;91.20;;;;;;5094134;28;20127;-74
2022/05/23 12:11:37;;;;;;;0.20;0.20;;;26.20;91.80;;;;;;5094825;28;20488;-74
2022/05/23 12:14:11;;;;;;;0.50;0.50;;;26.10;91.40;;;;;;5094341;28;20122;-73
2022/05/23 12:16:47;;;;;;;0.35;0.35;;;26.00;90.70;;;;;;5094156;28;20089;-74
2022/05/23 12:19:48;;;;;;;0.30;0.30;;;26.20;92.40;;;;;;5094057;28;20051;-73
2022/05/23 12:22:16;;;;;;;0.30;0.30;;;26.30;91.90;;;;;;5094033;28;20071;-73
2022/05/23 12:24:59;;;;;;;0.30;0.30;;;26.30;91.70;;;;;;5093767;28;20457;-74
2022/05/23 12:27:30;;;;;;;0.75;0.63;;;26.30;92.30;;;;;;5094096;28;20043;-73
2022/05/23 12:30:17;;;;;;;0.40;0.40;;;26.30;92.90;;;;;;5093693;28;20074;-73
2022/05/23 12:32:48;;;;;;;0.20;0.20;;;26.30;91.90;;;;;;5093990;28;20066;-73
2022/05/23 12:35:17;;;;;;;1.40;0.93;;;26.40;92.30;;;;;;5093907;28;20565;-73
2022/05/23 12:37:57;;;;;;;0.20;0.20;;;26.30;91.90;;;;;;5093877;28;20048;-73
2022/05/23 12:40:34;;;;;;;0.47;0.47;;;26.20;92.60;;;;;;5093872;28;20048;-72
2022/05/23 12:43:00;;;;;;;2.30;1.00;;;26.10;92.80;;;;;;5093859;28;20040;-72
2022/05/23 12:45:54;;;;;;;0.40;0.40;;;26.10;92.40;;;;;;5093864;28;20074;-74
2022/05/23 12:48:29;;;;;;;7.82;1.75;;;26.00;90.70;;;;;;5093847;28;20051;-75
2022/05/23 12:51:20;;;;;;;0.30;0.30;;;26.00;91.90;;;;;;5093363;28;20048;-73
2022/05/23 12:54:13;;;;;;;0.20;0.20;;;25.90;91.50;;;;;;5093759;28;20434;-72
2022/05/23 12:57:00;;;;;;;0.57;0.55;;;25.80;92.30;;;;;;5093807;28;20044;-74
2022/05/23 13:00:00;;;;;;;0.20;0.20;;;25.80;91.60;;;;;;5093945;28;20051;-73
2022/05/23 13:02:28;;;;;;;0.32;0.32;;;25.80;92.10;;;;;;5093625;28;20476;-75
2022/05/23 13:05:09;;;;;;;0.30;0.30;;;25.60;91.60;;;;;;5093652;28;20044;-74
2022/05/23 13:08:11;;;;;;;0.20;0.20;;;25.60;91.40;;;;;;5093699;28;20059;-74
2022/05/23 13:10:41;;;;;;;0.20;0.20;;;25.60;92.30;;;;;;5050595;28;20044;-74
2022/05/23 13:13:11;;;;;;;0.30;0.30;;;25.50;91.80;;;;;;5093674;28;20051;-75
2022/05/23 13:15:37;;;;;;;0.50;0.50;;;25.40;92.20;;;;;;5093763;28;20381;-75
2022/05/23 13:23:36;;;;;;;4.28;1.75;;;25.30;93.10;;;;;;5093554;28;20131;-73
2022/05/23 13:26:09;;;;;;;0.30;0.30;;;25.20;93.00;;;;;;5093481;28;20122;-73
2022/05/23 13:28:44;;;;;;;0.38;0.38;;;25.20;93.60;;;;;;5093393;28;20044;-74
2022/05/23 13:31:24;;;;;;;0.50;0.50;;;25.00;92.60;;;;;;5093459;28;20089;-73
2022/05/23 13:33:50;;;;;;;0.30;0.30;;;25.20;94.00;;;;;;5093377;28;20087;-74
2022/05/23 13:36:16;;;;;;;0.30;0.30;;;25.20;94.20;;;;;;5093415;28;20086;-73
2022/05/23 13:39:01;;;;;;;0.47;0.47;;;25.20;93.30;;;;;;5093320;28;20048;-74
2022/05/23 13:41:29;;;;;;;0.20;0.20;;;25.20;93.50;;;;;;5096888;28;20044;-74
2022/05/23 13:43:54;;;;;;;1.05;0.50;;;25.30;94.00;;;;;;5097071;28;20036;-73
2022/05/23 13:46:49;;;;;;;0.40;0.30;;;25.30;94.30;;;;;;5097102;28;20051;-73
2022/05/23 13:49:14;;;;;;;0.20;0.20;;;25.20;94.10;;;;;;5092905;28;20434;-75
2022/05/23 13:51:53;;;;;;;0.27;0.27;;;25.30;94.40;;;;;;5097398;28;20073;-74
2022/05/23 13:54:31;;;;;;;0.30;0.30;;;25.20;93.90;;;;;;5097037;28;20040;-75
2022/05/23 13:57:17;;;;;;;1.85;0.75;;;25.10;94.50;;;;;;5097070;28;20055;-75
2022/05/23 13:59:56;;;;;;;0.38;0.38;;;25.10;94.20;;;;;;5096806;28;20046;-74
2022/05/23 14:02:27;;;;;;;0.40;0.40;;;25.20;94.90;;;;;;5096746;28;20087;-74
2022/05/23 14:04:53;;;;;;;0.40;0.40;;;25.00;93.80;;;;;;5097079;28;20048;-74
2022/05/23 14:07:25;;;;;;;0.40;0.40;;;25.10;94.40;;;;;;5096840;28;20501;-74
2022/05/23 14:09:53;;;;;;;0.63;0.50;;;25.10;93.90;;;;;;5096599;28;20113;-74
2022/05/23 14:12:26;;;;;;;0.20;0.20;;;25.20;93.90;;;;;;5096548;28;20044;-73
2022/05/23 14:14:58;;;;;;;0.55;0.50;;;25.20;94.40;;;;;;5097015;28;20050;-74
2022/05/23 14:17:35;;;;;;;0.30;0.30;;;25.30;94.00;;;;;;5096852;28;20048;-74
2022/05/23 14:20:28;;;;;;;0.30;0.30;;;25.30;94.50;;;;;;5096702;28;20391;-74
2022/05/23 14:23:10;;;;;;;0.32;0.32;;;25.40;94.10;;;;;;5096306;28;20113;-74
2022/05/23 14:25:45;;;;;;;0.20;0.20;;;25.40;94.40;;;;;;5096711;28;20097;-74